sensor_id;sensor_type;location;lat;lon;timestamp;pressure;altitude;pressure_sealevel;temperature;humidity
56334;BME280;42240;53.626;55.886;2023-02-10T00:01:26;79488.34;;;-145.10;100.00
56334;BME280;42240;53.626;55.886;2023-02-10T00:02:59;79488.34;;;-145.10;100.00
56334;BME280;42240;53.626;55.886;2023-02-10T00:04:32;79482.41;;;-145.10;100.00
56334;BME280;42240;53.626;55.886;2023-02-10T00:06:07;79486.38;;;-145.10;100.00
56334;BME280;42240;53.626;55.886;2023-02-10T00:07:40;79492.31;;;-145.10;100.00
56334;BME280;42240;53.626;55.886;2023-02-10T00:09:13;79474.50;;;-145.10;100.00
56334;BME280;42240;53.626;55.886;2023-02-10T00:10:46;79492.31;;;-145.10;100.00
56334;BME280;42240;53.626;55.886;2023-02-10T00:12:19;79476.47;;;-145.10;100.00
56334;BME280;42240;53.626;55.886;2023-02-10T00:13:53;79472.53;;;-145.10;100.00
56334;BME280;42240;53.626;55.886;2023-02-10T00:15:26;79472.53;;;-145.10;100.00
56334;BME280;42240;53.626;55.886;2023-02-10T00:16:59;79611.03;;;-145.10;100.00
56334;BME280;42240;53.626;55.886;2023-02-10T00:18:33;79462.63;;;-145.10;100.00
56334;BME280;42240;53.626;55.886;2023-02-10T00:20:07;79460.66;;;-145.10;100.00
56334;BME280;42240;53.626;55.886;2023-02-10T00:21:40;79464.59;;;-145.10;100.00
56334;BME280;42240;53.626;55.886;2023-02-10T00:23:13;79468.56;;;-145.10;100.00
56334;BME280;42240;53.626;55.886;2023-02-10T00:24:47;79460.66;;;-145.10;100.00
56334;BME280;42240;53.626;55.886;2023-02-10T00:26:20;79472.53;;;-145.10;100.00
56334;BME280;42240;53.626;55.886;2023-02-10T00:27:53;79468.56;;;-145.10;100.00
56334;BME280;42240;53.626;55.886;2023-02-10T00:29:26;79472.53;;;-145.10;100.00
56334;BME280;42240;53.626;55.886;2023-02-10T00:31:12;79466.59;;;-145.10;100.00
56334;BME280;42240;53.626;55.886;2023-02-10T00:32:46;79452.72;;;-145.10;100.00
56334;BME280;42240;53.626;55.886;2023-02-10T00:34:19;79458.66;;;-145.10;100.00
56334;BME280;42240;53.626;55.886;2023-02-10T00:35:52;79462.63;;;-145.10;100.00
56334;BME280;42240;53.626;55.886;2023-02-10T00:37:25;79454.72;;;-145.10;100.00
56334;BME280;42240;53.626;55.886;2023-02-10T00:38:58;79446.78;;;-145.10;100.00
56334;BME280;42240;53.626;55.886;2023-02-10T00:40:31;79448.78;;;-145.10;100.00
56334;BME280;42240;53.626;55.886;2023-02-10T00:42:04;79444.81;;;-145.10;100.00
56334;BME280;42240;53.626;55.886;2023-02-10T00:43:40;79452.72;;;-145.10;100.00
56334;BME280;42240;53.626;55.886;2023-02-10T00:45:14;79448.78;;;-145.10;100.00
56334;BME280;42240;53.626;55.886;2023-02-10T00:46:47;79444.81;;;-145.10;100.00
56334;BME280;42240;53.626;55.886;2023-02-10T00:48:20;79438.88;;;-145.10;100.00
56334;BME280;42240;53.626;55.886;2023-02-10T00:49:54;79417.13;;;-145.10;100.00
56334;BME280;42240;53.626;55.886;2023-02-10T00:51:27;79436.91;;;-145.10;100.00
56334;BME280;42240;53.626;55.886;2023-02-10T00:53:02;79440.84;;;-145.10;100.00
56334;BME280;42240;53.626;55.886;2023-02-10T00:54:34;79430.97;;;-145.10;100.00
56334;BME280;42240;53.626;55.886;2023-02-10T00:56:08;79432.94;;;-145.10;100.00
56334;BME280;42240;53.626;55.886;2023-02-10T00:57:41;79438.88;;;-145.10;100.00
56334;BME280;42240;53.626;55.886;2023-02-10T00:59:15;79427.00;;;-145.10;100.00
56334;BME280;42240;53.626;55.886;2023-02-10T01:00:48;79472.53;;;-145.10;100.00
56334;BME280;42240;53.626;55.886;2023-02-10T01:02:22;79508.13;;;-145.10;100.00
56334;BME280;42240;53.626;55.886;2023-02-10T01:03:55;79428.97;;;-145.10;100.00
56334;BME280;42240;53.626;55.886;2023-02-10T01:05:28;79428.97;;;-145.10;100.00
56334;BME280;42240;53.626;55.886;2023-02-10T01:07:01;79428.97;;;-145.10;100.00
56334;BME280;42240;53.626;55.886;2023-02-10T01:08:35;79425.03;;;-145.10;100.00
56334;BME280;42240;53.626;55.886;2023-02-10T01:10:08;79423.03;;;-145.10;100.00
56334;BME280;42240;53.626;55.886;2023-02-10T01:11:41;79425.03;;;-145.10;100.00
56334;BME280;42240;53.626;55.886;2023-02-10T01:13:14;79421.06;;;-145.10;100.00
56334;BME280;42240;53.626;55.886;2023-02-10T01:14:47;79423.03;;;-145.10;100.00
56334;BME280;42240;53.626;55.886;2023-02-10T01:16:22;79421.06;;;-145.10;100.00
56334;BME280;42240;53.626;55.886;2023-02-10T01:17:55;79427.00;;;-145.10;100.00
56334;BME280;42240;53.626;55.886;2023-02-10T01:19:28;79409.19;;;-145.10;100.00
56334;BME280;42240;53.626;55.886;2023-02-10T01:21:07;79415.13;;;-145.10;100.00
56334;BME280;42240;53.626;55.886;2023-02-10T01:22:40;79434.91;;;-145.10;100.00
56334;BME280;42240;53.626;55.886;2023-02-10T01:24:13;79423.03;;;-145.10;100.00
56334;BME280;42240;53.626;55.886;2023-02-10T01:25:46;79428.97;;;-145.10;100.00
56334;BME280;42240;53.626;55.886;2023-02-10T01:27:24;79415.13;;;-145.10;100.00
56334;BME280;42240;53.626;55.886;2023-02-10T01:28:57;79413.16;;;-145.10;100.00
56334;BME280;42240;53.626;55.886;2023-02-10T01:30:30;79411.19;;;-145.10;100.00
56334;BME280;42240;53.626;55.886;2023-02-10T01:32:04;79411.19;;;-145.10;100.00
56334;BME280;42240;53.626;55.886;2023-02-10T01:33:37;79407.22;;;-145.10;100.00
56334;BME280;42240;53.626;55.886;2023-02-10T01:35:10;79401.28;;;-145.10;100.00
56334;BME280;42240;53.626;55.886;2023-02-10T01:36:43;79393.38;;;-145.10;100.00
56334;BME280;42240;53.626;55.886;2023-02-10T01:38:17;79397.31;;;-145.10;100.00
56334;BME280;42240;53.626;55.886;2023-02-10T01:39:50;79393.38;;;-145.10;100.00
56334;BME280;42240;53.626;55.886;2023-02-10T01:41:23;79391.38;;;-145.10;100.00
56334;BME280;42240;53.626;55.886;2023-02-10T01:42:57;79389.41;;;-145.10;100.00
56334;BME280;42240;53.626;55.886;2023-02-10T01:46:03;79381.50;;;-145.10;100.00
56334;BME280;42240;53.626;55.886;2023-02-10T01:47:36;79389.41;;;-145.10;100.00
56334;BME280;42240;53.626;55.886;2023-02-10T01:49:13;79436.91;;;-145.10;100.00
56334;BME280;42240;53.626;55.886;2023-02-10T01:52:25;79381.50;;;-145.10;100.00
56334;BME280;42240;53.626;55.886;2023-02-10T01:54:03;79395.34;;;-145.10;100.00
56334;BME280;42240;53.626;55.886;2023-02-10T01:55:39;79409.19;;;-145.10;100.00
56334;BME280;42240;53.626;55.886;2023-02-10T01:57:16;79411.19;;;-145.10;100.00
56334;BME280;42240;53.626;55.886;2023-02-10T01:58:50;79403.25;;;-145.10;100.00
56334;BME280;42240;53.626;55.886;2023-02-10T02:00:24;79421.06;;;-145.10;100.00
56334;BME280;42240;53.626;55.886;2023-02-10T02:01:59;79397.31;;;-145.10;100.00
56334;BME280;42240;53.626;55.886;2023-02-10T02:03:39;79502.19;;;-145.10;100.00
56334;BME280;42240;53.626;55.886;2023-02-10T02:05:30;79391.38;;;-145.10;100.00
56334;BME280;42240;53.626;55.886;2023-02-10T02:07:03;79391.38;;;-145.10;100.00
56334;BME280;42240;53.626;55.886;2023-02-10T02:08:37;79383.47;;;-145.10;100.00
56334;BME280;42240;53.626;55.886;2023-02-10T02:10:14;79428.97;;;-145.10;100.00
56334;BME280;42240;53.626;55.886;2023-02-10T02:12:20;79446.78;;;-145.10;100.00
56334;BME280;42240;53.626;55.886;2023-02-10T02:25:35;79440.84;;;-145.10;100.00
56334;BME280;42240;53.626;55.886;2023-02-10T02:31:51;79504.19;;;-145.10;100.00
56334;BME280;42240;53.626;55.886;2023-02-10T02:33:49;79490.31;;;-145.10;100.00
56334;BME280;42240;53.626;55.886;2023-02-10T02:35:27;79466.59;;;-145.10;100.00
56334;BME280;42240;53.626;55.886;2023-02-10T02:39:06;79486.38;;;-145.10;100.00
56334;BME280;42240;53.626;55.886;2023-02-10T02:40:39;79468.56;;;-145.10;100.00
56334;BME280;42240;53.626;55.886;2023-02-10T02:42:18;79454.72;;;-145.10;100.00
56334;BME280;42240;53.626;55.886;2023-02-10T02:43:52;79460.66;;;-145.10;100.00
56334;BME280;42240;53.626;55.886;2023-02-10T02:45:36;79436.91;;;-145.10;100.00
56334;BME280;42240;53.626;55.886;2023-02-10T02:49:02;79432.94;;;-145.10;100.00
56334;BME280;42240;53.626;55.886;2023-02-10T02:51:13;79432.94;;;-145.10;100.00
56334;BME280;42240;53.626;55.886;2023-02-10T02:53:17;79432.94;;;-145.10;100.00
56334;BME280;42240;53.626;55.886;2023-02-10T02:55:26;79446.78;;;-145.10;100.00
56334;BME280;42240;53.626;55.886;2023-02-10T02:57:22;79452.72;;;-145.10;100.00
56334;BME280;42240;53.626;55.886;2023-02-10T03:00:49;79454.72;;;-145.10;100.00
56334;BME280;42240;53.626;55.886;2023-02-10T03:02:24;79450.75;;;-145.10;100.00
56334;BME280;42240;53.626;55.886;2023-02-10T03:04:02;79448.78;;;-145.10;100.00
56334;BME280;42240;53.626;55.886;2023-02-10T03:05:38;79436.91;;;-145.10;100.00
56334;BME280;42240;53.626;55.886;2023-02-10T03:07:11;79452.72;;;-145.10;100.00
56334;BME280;42240;53.626;55.886;2023-02-10T03:08:44;79472.53;;;-145.10;100.00
56334;BME280;42240;53.626;55.886;2023-02-10T03:10:17;79462.63;;;-145.10;100.00
56334;BME280;42240;53.626;55.886;2023-02-10T03:11:50;79450.75;;;-145.10;100.00
56334;BME280;42240;53.626;55.886;2023-02-10T03:13:23;79428.97;;;-145.10;100.00
56334;BME280;42240;53.626;55.886;2023-02-10T03:14:56;79438.88;;;-145.10;100.00
56334;BME280;42240;53.626;55.886;2023-02-10T03:16:29;79444.81;;;-145.10;100.00
56334;BME280;42240;53.626;55.886;2023-02-10T03:18:02;79428.97;;;-145.10;100.00
56334;BME280;42240;53.626;55.886;2023-02-10T03:19:35;79436.91;;;-145.10;100.00
56334;BME280;42240;53.626;55.886;2023-02-10T03:21:08;79440.84;;;-145.10;100.00
56334;BME280;42240;53.626;55.886;2023-02-10T03:22:42;79432.94;;;-145.10;100.00
56334;BME280;42240;53.626;55.886;2023-02-10T03:24:15;79425.03;;;-145.10;100.00
56334;BME280;42240;53.626;55.886;2023-02-10T03:25:49;79423.03;;;-145.10;100.00
56334;BME280;42240;53.626;55.886;2023-02-10T03:27:22;79427.00;;;-145.10;100.00
56334;BME280;42240;53.626;55.886;2023-02-10T03:28:56;79428.97;;;-145.10;100.00
56334;BME280;42240;53.626;55.886;2023-02-10T03:30:29;79442.84;;;-145.10;100.00
56334;BME280;42240;53.626;55.886;2023-02-10T03:32:01;79430.97;;;-145.10;100.00
56334;BME280;42240;53.626;55.886;2023-02-10T03:33:36;79428.97;;;-145.10;100.00
56334;BME280;42240;53.626;55.886;2023-02-10T03:35:09;79423.03;;;-145.10;100.00
56334;BME280;42240;53.626;55.886;2023-02-10T03:36:42;79450.75;;;-145.10;100.00
56334;BME280;42240;53.626;55.886;2023-02-10T03:38:15;79428.97;;;-145.10;100.00
56334;BME280;42240;53.626;55.886;2023-02-10T03:39:48;79423.03;;;-145.10;100.00
56334;BME280;42240;53.626;55.886;2023-02-10T03:41:21;79442.84;;;-145.10;100.00
56334;BME280;42240;53.626;55.886;2023-02-10T03:42:54;79436.91;;;-145.10;100.00
56334;BME280;42240;53.626;55.886;2023-02-10T03:44:27;79442.84;;;-145.10;100.00
56334;BME280;42240;53.626;55.886;2023-02-10T03:46:01;79446.78;;;-145.10;100.00
56334;BME280;42240;53.626;55.886;2023-02-10T03:47:35;79458.66;;;-145.10;100.00
56334;BME280;42240;53.626;55.886;2023-02-10T03:49:08;79456.69;;;-145.10;100.00
56334;BME280;42240;53.626;55.886;2023-02-10T03:50:41;79504.19;;;-145.10;100.00
56334;BME280;42240;53.626;55.886;2023-02-10T03:52:15;79434.91;;;-145.10;100.00
56334;BME280;42240;53.626;55.886;2023-02-10T03:53:48;79436.91;;;-145.10;100.00
56334;BME280;42240;53.626;55.886;2023-02-10T03:55:21;79440.84;;;-145.10;100.00
56334;BME280;42240;53.626;55.886;2023-02-10T03:56:54;79452.72;;;-145.10;100.00
56334;BME280;42240;53.626;55.886;2023-02-10T03:58:27;79478.44;;;-145.10;100.00
56334;BME280;42240;53.626;55.886;2023-02-10T04:00:00;79482.41;;;-145.10;100.00
56334;BME280;42240;53.626;55.886;2023-02-10T04:01:43;79492.31;;;-145.10;100.00
56334;BME280;42240;53.626;55.886;2023-02-10T04:03:17;79523.97;;;-145.10;100.00
56334;BME280;42240;53.626;55.886;2023-02-10T04:04:50;79571.47;;;-145.10;100.00
56334;BME280;42240;53.626;55.886;2023-02-10T04:06:23;79527.94;;;-145.10;100.00
56334;BME280;42240;53.626;55.886;2023-02-10T04:07:56;79488.34;;;-145.10;100.00
56334;BME280;42240;53.626;55.886;2023-02-10T04:09:29;79500.22;;;-145.10;100.00
56334;BME280;42240;53.626;55.886;2023-02-10T04:11:03;79442.84;;;-145.10;100.00
56334;BME280;42240;53.626;55.886;2023-02-10T04:12:43;79425.03;;;-145.10;100.00
56334;BME280;42240;53.626;55.886;2023-02-10T04:14:16;79446.78;;;-145.10;100.00
56334;BME280;42240;53.626;55.886;2023-02-10T04:16:20;79423.03;;;-145.10;100.00
56334;BME280;42240;53.626;55.886;2023-02-10T04:17:55;79440.84;;;-145.10;100.00
56334;BME280;42240;53.626;55.886;2023-02-10T04:19:28;79434.91;;;-145.10;100.00
56334;BME280;42240;53.626;55.886;2023-02-10T04:21:03;79425.03;;;-145.10;100.00
56334;BME280;42240;53.626;55.886;2023-02-10T04:22:36;79446.78;;;-145.10;100.00
56334;BME280;42240;53.626;55.886;2023-02-10T04:24:09;79442.84;;;-145.10;100.00
56334;BME280;42240;53.626;55.886;2023-02-10T04:25:42;79500.22;;;-145.10;100.00
56334;BME280;42240;53.626;55.886;2023-02-10T04:27:15;79434.91;;;-145.10;100.00
56334;BME280;42240;53.626;55.886;2023-02-10T04:28:48;79428.97;;;-145.10;100.00
56334;BME280;42240;53.626;55.886;2023-02-10T04:30:21;79454.72;;;-145.10;100.00
56334;BME280;42240;53.626;55.886;2023-02-10T04:31:54;79468.56;;;-145.10;100.00
56334;BME280;42240;53.626;55.886;2023-02-10T04:33:28;79571.47;;;-145.10;100.00
56334;BME280;42240;53.626;55.886;2023-02-10T04:35:01;79434.91;;;-145.10;100.00
56334;BME280;42240;53.626;55.886;2023-02-10T04:36:35;79454.72;;;-145.10;100.00
56334;BME280;42240;53.626;55.886;2023-02-10T04:38:08;79454.72;;;-145.10;100.00
56334;BME280;42240;53.626;55.886;2023-02-10T04:39:41;79492.31;;;-145.10;100.00
56334;BME280;42240;53.626;55.886;2023-02-10T04:41:14;79516.06;;;-145.10;100.00
56334;BME280;42240;53.626;55.886;2023-02-10T04:42:47;79520.00;;;-145.10;100.00
56334;BME280;42240;53.626;55.886;2023-02-10T04:44:20;79527.94;;;-145.10;100.00
56334;BME280;42240;53.626;55.886;2023-02-10T04:45:53;79531.88;;;-145.10;100.00
56334;BME280;42240;53.626;55.886;2023-02-10T04:47:27;79518.03;;;-145.10;100.00
56334;BME280;42240;53.626;55.886;2023-02-10T04:49:00;79533.84;;;-145.10;100.00
56334;BME280;42240;53.626;55.886;2023-02-10T04:50:36;79500.22;;;-145.10;100.00
56334;BME280;42240;53.626;55.886;2023-02-10T04:52:09;79464.59;;;-145.10;100.00
56334;BME280;42240;53.626;55.886;2023-02-10T04:53:42;79466.59;;;-145.10;100.00
56334;BME280;42240;53.626;55.886;2023-02-10T04:55:19;79430.97;;;-145.10;100.00
56334;BME280;42240;53.626;55.886;2023-02-10T04:56:52;79397.31;;;-145.10;100.00
56334;BME280;42240;53.626;55.886;2023-02-10T04:58:25;79397.31;;;-145.10;100.00
56334;BME280;42240;53.626;55.886;2023-02-10T04:59:59;79409.19;;;-145.10;100.00
56334;BME280;42240;53.626;55.886;2023-02-10T05:01:32;79393.38;;;-145.10;100.00
56334;BME280;42240;53.626;55.886;2023-02-10T05:03:05;79389.41;;;-145.10;100.00
56334;BME280;42240;53.626;55.886;2023-02-10T05:04:38;79407.22;;;-145.10;100.00
56334;BME280;42240;53.626;55.886;2023-02-10T05:06:14;79411.19;;;-145.10;100.00
56334;BME280;42240;53.626;55.886;2023-02-10T05:07:47;79456.69;;;-145.10;100.00
56334;BME280;42240;53.626;55.886;2023-02-10T05:09:20;79440.84;;;-145.10;100.00
56334;BME280;42240;53.626;55.886;2023-02-10T05:10:53;79411.19;;;-145.10;100.00
56334;BME280;42240;53.626;55.886;2023-02-10T05:12:26;79413.16;;;-145.10;100.00
56334;BME280;42240;53.626;55.886;2023-02-10T05:13:59;79417.13;;;-145.10;100.00
56334;BME280;42240;53.626;55.886;2023-02-10T05:15:32;79428.97;;;-145.10;100.00
56334;BME280;42240;53.626;55.886;2023-02-10T05:17:05;79428.97;;;-145.10;100.00
56334;BME280;42240;53.626;55.886;2023-02-10T05:18:39;79393.38;;;-145.10;100.00
56334;BME280;42240;53.626;55.886;2023-02-10T05:20:14;79409.19;;;-145.10;100.00
56334;BME280;42240;53.626;55.886;2023-02-10T05:21:47;79523.97;;;-145.10;100.00
56334;BME280;42240;53.626;55.886;2023-02-10T05:23:20;79383.47;;;-145.10;100.00
56334;BME280;42240;53.626;55.886;2023-02-10T05:24:53;79363.69;;;-145.10;100.00
56334;BME280;42240;53.626;55.886;2023-02-10T05:26:27;79347.84;;;-145.10;100.00
56334;BME280;42240;53.626;55.886;2023-02-10T05:28:00;79337.97;;;-145.10;100.00
56334;BME280;42240;53.626;55.886;2023-02-10T05:29:34;79328.06;;;-145.10;100.00
56334;BME280;42240;53.626;55.886;2023-02-10T05:31:07;79294.44;;;-145.10;100.00
56334;BME280;42240;53.626;55.886;2023-02-10T05:32:41;79341.91;;;-145.10;100.00
56334;BME280;42240;53.626;55.886;2023-02-10T05:34:14;79294.44;;;-145.10;100.00
56334;BME280;42240;53.626;55.886;2023-02-10T05:35:47;79292.44;;;-145.10;100.00
56334;BME280;42240;53.626;55.886;2023-02-10T05:37:21;79282.56;;;-145.10;100.00
56334;BME280;42240;53.626;55.886;2023-02-10T05:38:54;79268.72;;;-145.10;100.00
56334;BME280;42240;53.626;55.886;2023-02-10T05:40:45;79248.91;;;-145.10;100.00
56334;BME280;42240;53.626;55.886;2023-02-10T05:42:18;79270.69;;;-145.10;100.00
56334;BME280;42240;53.626;55.886;2023-02-10T05:43:51;79278.59;;;-145.10;100.00
56334;BME280;42240;53.626;55.886;2023-02-10T05:45:24;79276.63;;;-145.10;100.00
56334;BME280;42240;53.626;55.886;2023-02-10T05:46:57;79233.09;;;-145.10;100.00
56334;BME280;42240;53.626;55.886;2023-02-10T05:48:30;79215.28;;;-145.10;100.00
56334;BME280;42240;53.626;55.886;2023-02-10T05:50:04;79239.03;;;-145.10;100.00
56334;BME280;42240;53.626;55.886;2023-02-10T05:51:37;79233.09;;;-145.10;100.00
56334;BME280;42240;53.626;55.886;2023-02-10T05:53:10;79225.16;;;-145.10;100.00
56334;BME280;42240;53.626;55.886;2023-02-10T05:54:45;79185.59;;;-145.10;100.00
56334;BME280;42240;53.626;55.886;2023-02-10T05:56:18;79179.66;;;-145.10;100.00
56334;BME280;42240;53.626;55.886;2023-02-10T05:57:52;79161.84;;;-145.10;100.00
56334;BME280;42240;53.626;55.886;2023-02-10T05:59:25;79155.91;;;-145.10;100.00
56334;BME280;42240;53.626;55.886;2023-02-10T06:00:59;79144.03;;;-145.10;100.00
56334;BME280;42240;53.626;55.886;2023-02-10T06:02:32;79169.78;;;-145.10;100.00
56334;BME280;42240;53.626;55.886;2023-02-10T06:04:05;79144.03;;;-145.10;100.00
56334;BME280;42240;53.626;55.886;2023-02-10T06:05:38;79179.66;;;-145.10;100.00
56334;BME280;42240;53.626;55.886;2023-02-10T06:07:11;79195.50;;;-145.10;100.00
56334;BME280;42240;53.626;55.886;2023-02-10T06:08:44;79244.97;;;-145.10;100.00
56334;BME280;42240;53.626;55.886;2023-02-10T06:10:18;79229.13;;;-145.10;100.00
56334;BME280;42240;53.626;55.886;2023-02-10T06:11:51;79223.19;;;-145.10;100.00
56334;BME280;42240;53.626;55.886;2023-02-10T06:13:24;79260.78;;;-145.10;100.00
56334;BME280;42240;53.626;55.886;2023-02-10T06:14:57;79246.94;;;-145.10;100.00
56334;BME280;42240;53.626;55.886;2023-02-10T06:16:30;79155.91;;;-145.10;100.00
56334;BME280;42240;53.626;55.886;2023-02-10T06:18:03;79128.22;;;-145.10;100.00
56334;BME280;42240;53.626;55.886;2023-02-10T06:19:37;79108.44;;;-145.10;100.00
56334;BME280;42240;53.626;55.886;2023-02-10T06:21:10;79108.44;;;-145.10;100.00
56334;BME280;42240;53.626;55.886;2023-02-10T06:22:43;79096.56;;;-145.10;100.00
56334;BME280;42240;53.626;55.886;2023-02-10T06:24:16;79088.66;;;-145.10;100.00
56334;BME280;42240;53.626;55.886;2023-02-10T06:25:49;79149.97;;;-145.10;100.00
56334;BME280;42240;53.626;55.886;2023-02-10T06:27:26;79205.38;;;-145.10;100.00
56334;BME280;42240;53.626;55.886;2023-02-10T06:28:59;79090.63;;;-145.10;100.00
56334;BME280;42240;53.626;55.886;2023-02-10T06:30:32;79100.53;;;-145.10;100.00
56334;BME280;42240;53.626;55.886;2023-02-10T06:32:05;79118.31;;;-145.10;100.00
56334;BME280;42240;53.626;55.886;2023-02-10T06:33:38;79080.72;;;-145.10;100.00
56334;BME280;42240;53.626;55.886;2023-02-10T06:35:12;79110.41;;;-145.10;100.00
56334;BME280;42240;53.626;55.886;2023-02-10T06:36:45;79072.81;;;-145.10;100.00
56334;BME280;42240;53.626;55.886;2023-02-10T06:38:18;79055.00;;;-145.10;100.00
56334;BME280;42240;53.626;55.886;2023-02-10T06:39:51;79136.13;;;-145.10;100.00
56334;BME280;42240;53.626;55.886;2023-02-10T06:41:24;79136.13;;;-145.10;100.00
56334;BME280;42240;53.626;55.886;2023-02-10T06:42:57;79082.72;;;-145.10;100.00
56334;BME280;42240;53.626;55.886;2023-02-10T06:44:30;79060.94;;;-145.10;100.00
56334;BME280;42240;53.626;55.886;2023-02-10T06:46:04;79051.06;;;-145.10;100.00
56334;BME280;42240;53.626;55.886;2023-02-10T06:47:37;79062.94;;;-145.10;100.00
56334;BME280;42240;53.626;55.886;2023-02-10T06:49:10;79088.66;;;-145.10;100.00
56334;BME280;42240;53.626;55.886;2023-02-10T06:50:43;79066.88;;;-145.10;100.00
56334;BME280;42240;53.626;55.886;2023-02-10T06:52:16;79124.25;;;-145.10;100.00
56334;BME280;42240;53.626;55.886;2023-02-10T06:53:49;79100.53;;;-145.10;100.00
56334;BME280;42240;53.626;55.886;2023-02-10T06:55:22;79100.53;;;-145.10;100.00
56334;BME280;42240;53.626;55.886;2023-02-10T06:56:55;79177.69;;;-145.10;100.00
56334;BME280;42240;53.626;55.886;2023-02-10T06:58:28;79142.06;;;-145.10;100.00
56334;BME280;42240;53.626;55.886;2023-02-10T07:00:03;79114.38;;;-145.10;100.00
56334;BME280;42240;53.626;55.886;2023-02-10T07:01:37;79088.66;;;-145.10;100.00
56334;BME280;42240;53.626;55.886;2023-02-10T07:03:12;79078.75;;;-145.10;100.00
56334;BME280;42240;53.626;55.886;2023-02-10T07:04:45;79102.50;;;-145.10;100.00
56334;BME280;42240;53.626;55.886;2023-02-10T07:06:19;79090.63;;;-145.10;100.00
56334;BME280;42240;53.626;55.886;2023-02-10T07:07:52;79041.16;;;-145.10;100.00
56334;BME280;42240;53.626;55.886;2023-02-10T07:09:26;79060.94;;;-145.10;100.00
56334;BME280;42240;53.626;55.886;2023-02-10T07:10:59;79037.19;;;-145.10;100.00
56334;BME280;42240;53.626;55.886;2023-02-10T07:12:32;79037.19;;;-145.10;100.00
56334;BME280;42240;53.626;55.886;2023-02-10T07:14:05;79017.41;;;-145.10;100.00
56334;BME280;42240;53.626;55.886;2023-02-10T07:15:38;79021.38;;;-145.10;100.00
56334;BME280;42240;53.626;55.886;2023-02-10T07:17:11;79001.59;;;-145.10;100.00
56334;BME280;42240;53.626;55.886;2023-02-10T07:18:44;79003.56;;;-145.10;100.00
56334;BME280;42240;53.626;55.886;2023-02-10T07:20:18;79001.59;;;-145.10;100.00
56334;BME280;42240;53.626;55.886;2023-02-10T07:21:51;78999.59;;;-145.10;100.00
56334;BME280;42240;53.626;55.886;2023-02-10T07:23:24;78962.00;;;-145.10;100.00
56334;BME280;42240;53.626;55.886;2023-02-10T07:25:07;78971.91;;;-145.10;100.00
56334;BME280;42240;53.626;55.886;2023-02-10T07:26:42;78936.28;;;-145.10;100.00
56334;BME280;42240;53.626;55.886;2023-02-10T07:28:16;78906.63;;;-145.10;100.00
56334;BME280;42240;53.626;55.886;2023-02-10T07:29:49;78886.81;;;-145.10;100.00
56334;BME280;42240;53.626;55.886;2023-02-10T07:31:22;78894.75;;;-145.10;100.00
56334;BME280;42240;53.626;55.886;2023-02-10T07:32:56;78890.78;;;-145.10;100.00
56334;BME280;42240;53.626;55.886;2023-02-10T07:34:29;78890.78;;;-145.10;100.00
56334;BME280;42240;53.626;55.886;2023-02-10T07:36:07;78878.91;;;-145.10;100.00
56334;BME280;42240;53.626;55.886;2023-02-10T07:37:41;78993.66;;;-145.10;100.00
56334;BME280;42240;53.626;55.886;2023-02-10T07:39:14;78869.03;;;-145.10;100.00
56334;BME280;42240;53.626;55.886;2023-02-10T07:40:48;78859.13;;;-145.10;100.00
56334;BME280;42240;53.626;55.886;2023-02-10T07:42:21;78867.03;;;-145.10;100.00
56334;BME280;42240;53.626;55.886;2023-02-10T07:44:18;78922.44;;;-145.10;100.00
56334;BME280;42240;53.626;55.886;2023-02-10T07:45:55;78993.66;;;-145.10;100.00
56334;BME280;42240;53.626;55.886;2023-02-10T07:47:28;78954.09;;;-145.10;100.00
56334;BME280;42240;53.626;55.886;2023-02-10T07:49:02;78922.44;;;-145.10;100.00
56334;BME280;42240;53.626;55.886;2023-02-10T07:50:35;78965.97;;;-145.10;100.00
56334;BME280;42240;53.626;55.886;2023-02-10T07:52:08;78847.25;;;-145.10;100.00
56334;BME280;42240;53.626;55.886;2023-02-10T07:53:41;78863.09;;;-145.10;100.00
56334;BME280;42240;53.626;55.886;2023-02-10T07:55:15;78823.53;;;-145.10;100.00
56334;BME280;42240;53.626;55.886;2023-02-10T07:56:49;78839.34;;;-145.10;100.00
56334;BME280;42240;53.626;55.886;2023-02-10T07:58:22;78839.34;;;-145.10;100.00
56334;BME280;42240;53.626;55.886;2023-02-10T07:59:56;78851.22;;;-145.10;100.00
56334;BME280;42240;53.626;55.886;2023-02-10T08:01:29;78916.50;;;-145.10;100.00
56334;BME280;42240;53.626;55.886;2023-02-10T08:03:03;79017.41;;;-145.10;100.00
56334;BME280;42240;53.626;55.886;2023-02-10T08:04:36;78874.97;;;-145.10;100.00
56334;BME280;42240;53.626;55.886;2023-02-10T08:06:09;78853.19;;;-145.10;100.00
56334;BME280;42240;53.626;55.886;2023-02-10T08:07:42;78962.00;;;-145.10;100.00
56334;BME280;42240;53.626;55.886;2023-02-10T08:09:16;78825.50;;;-145.10;100.00
56334;BME280;42240;53.626;55.886;2023-02-10T08:10:49;78789.88;;;-145.10;100.00
56334;BME280;42240;53.626;55.886;2023-02-10T08:12:23;78768.13;;;-145.10;100.00
56334;BME280;42240;53.626;55.886;2023-02-10T08:13:56;78811.66;;;-145.10;100.00
56334;BME280;42240;53.626;55.886;2023-02-10T08:15:29;78752.28;;;-145.10;100.00
56334;BME280;42240;53.626;55.886;2023-02-10T08:17:02;78740.41;;;-145.10;100.00
56334;BME280;42240;53.626;55.886;2023-02-10T08:18:39;78819.56;;;-145.10;99.63
56334;BME280;42240;53.626;55.886;2023-02-10T08:20:12;78744.38;;;-145.10;100.00
56334;BME280;42240;53.626;55.886;2023-02-10T08:21:45;78708.75;;;-145.10;100.00